Latest Weather Observations for Williamson

IDQ60801

Issued at 5:02 pm EST Friday 31 July 2015 (issued every 30 minutes, with the page automatically refreshed every 10 minutes)

About weather observations | Map of weather stations | Latest weather observations for QLD | Other Formats
Station Details ID: 033195 Name: WILLIAMSON Lat: -22.47 Lon: 150.18 Height: 27.6 m
Data from the previous 72 hours. | See also: Recent months at Williamson
Date/Time
EST
Temp
°C
App
Temp
°C
Dew
Point
Rel
Hum
%
Delta-T
°C
Wind Press
QNH
hPa
Press
MSL
hPa
Rain
since 9 am
mm
Dir
 
Spd
km/h
Gust
km/h
Spd
kts
Gust
kts
31/05:00pm 22.1 20.5 12.9 56 5.2 ENE 13 22 7 12 1020.1 1020.1 0.0
31/04:30pm 22.9 20.9 12.8 53 5.8 ENE 15 22 8 12 1019.8 1019.8 0.0
31/04:00pm 23.7 22.6 13.0 51 6.2 ENE 11 19 6 10 1019.8 1019.8 0.0
31/03:30pm 22.5 20.8 12.4 52 5.7 ENE 13 22 7 12 1019.9 1019.9 0.0
31/03:00pm 23.5 23.6 12.8 51 6.1 NNE 4 13 2 7 1020.0 1020.0 0.0
31/02:30pm 23.8 23.1 12.1 48 6.7 ENE 7 11 4 6 1020.3 1020.3 0.0
31/02:00pm 23.7 22.4 10.0 42 7.5 E 7 9 4 5 1020.5 1020.5 0.0
31/01:30pm 24.2 23.5 11.9 46 7.0 ENE 7 15 4 8 1020.9 1020.9 0.0
31/01:00pm 23.7 23.0 13.3 52 6.0 NE 9 13 5 7 1021.4 1021.4 0.0
31/12:30pm 23.0 22.1 12.6 52 5.9 S 9 17 5 9 1022.0 1022.0 0.0
31/12:00pm 22.2 21.6 13.5 57 5.0 SSE 9 15 5 8 1022.8 1022.8 0.0
31/11:30am 22.7 22.5 13.7 56 5.2 S 7 15 4 8 1023.2 1023.2 0.0
31/11:00am 21.4 20.8 14.6 65 4.0 SSE 11 15 6 8 1023.6 1023.6 0.0
31/10:30am 21.3 22.0 15.6 70 3.4 SE 6 13 3 7 1023.9 1023.9 0.0
31/10:00am 18.8 19.7 16.0 84 1.7 S 6 11 3 6 1024.3 1024.3 0.0
31/09:30am 16.4 17.0 15.9 97 0.3 SSW 7 11 4 6 1024.6 1024.6 0.0
31/09:00am 15.3 14.8 15.0 98 0.2 SW 11 15 6 8 1024.3 1024.3 0.2
31/08:30am 15.1 14.9 14.8 98 0.2 SSW 9 11 5 6 1023.8 1023.8 0.2
31/08:00am 14.7 15.0 14.4 98 0.2 SSW 6 9 3 5 1023.4 1023.4 0.2
31/07:30am 13.6 14.3 13.3 98 0.2 NNW 2 9 1 5 1023.3 1023.3 0.2
31/07:00am 11.9 12.4 11.6 98 0.2 CALM 0 7 0 4 1023.1 1023.1 0.2
31/06:30am 11.7 12.1 11.4 98 0.2 CALM 0 0 0 0 1023.0 1023.0 0.0
31/06:00am 11.4 11.8 11.1 98 0.2 CALM 0 0 0 0 1022.5 1022.5 0.0
31/05:30am 10.9 11.1 10.6 98 0.2 CALM 0 0 0 0 1022.0 1022.0 0.0
31/05:00am 10.6 10.7 10.3 98 0.2 CALM 0 0 0 0 1021.8 1021.8 0.0
31/04:30am 10.2 10.2 9.9 98 0.2 CALM 0 0 0 0 1021.9 1021.9 0.0
31/04:00am 10.0 9.6 9.7 98 0.1 SSE 2 7 1 4 1022.1 1022.1 0.0
31/03:30am 10.0 9.6 9.7 98 0.2 SSE 2 6 1 3 1022.2 1022.2 0.0
31/03:00am 9.3 8.3 8.7 96 0.3 SSE 4 7 2 4 1022.4 1022.4 0.0
31/02:30am 9.6 8.1 9.1 97 0.2 S 7 9 4 5 1022.4 1022.4 0.0
31/02:00am 9.5 8.8 8.7 95 0.4 SSE 2 7 1 4 1022.7 1022.7 0.0
31/01:30am 10.0 8.7 9.2 95 0.4 S 6 7 3 4 1022.8 1022.8 0.0
31/01:00am 10.1 9.9 9.2 94 0.4 CALM 0 6 0 3 1022.9 1022.9 0.0
31/12:30am 10.2 9.7 9.3 94 0.4 W 2 6 1 3 1023.2 1023.2 0.0
31/12:00am 10.4 10.3 9.6 95 0.4 CALM 0 0 0 0 1023.5 1023.5 0.0
 
Date/Time
EST
Temp
°C
App
Temp
°C
Dew
Point
Rel
Hum
%
Delta-T
°C
Wind Press
QNH
hPa
Press
MSL
hPa
Rain
since 9 am
mm
Dir
 
Spd
km/h
Gust
km/h
Spd
kts
Gust
kts
30/11:30pm 10.7 10.7 9.8 94 0.5 CALM 0 7 0 4 1023.9 1023.9 0.0
30/11:00pm 11.1 11.2 10.0 93 0.6 CALM 0 0 0 0 1024.0 1024.0 0.0
30/10:30pm 11.7 11.9 10.6 93 0.6 CALM 0 2 0 1 1024.2 1024.2 0.0
30/10:00pm 11.7 11.5 10.6 93 0.6 ESE 2 6 1 3 1024.3 1024.3 0.0
30/09:30pm 12.6 13.0 11.3 92 0.7 CALM 0 0 0 0 1024.4 1024.4 0.0
30/09:00pm 13.0 12.3 11.4 90 0.8 SW 6 9 3 5 1024.2 1024.2 0.0
30/08:30pm 13.7 14.2 11.7 88 1.1 CALM 0 0 0 0 1024.1 1024.1 0.0
30/08:00pm 14.5 15.0 11.6 83 1.5 CALM 0 0 0 0 1024.0 1024.0 0.0
30/07:30pm 15.4 16.1 12.3 82 1.7 CALM 0 0 0 0 1023.6 1023.6 0.0
30/07:00pm 16.9 17.6 12.2 74 2.6 CALM 0 0 0 0 1023.3 1023.3 0.0
30/06:30pm 18.9 19.2 13.3 70 3.2 ESE 4 7 2 4 1023.0 1023.0 0.0
30/06:00pm 19.5 18.8 13.2 67 3.6 SE 9 15 5 8 1022.6 1022.6 0.0
30/05:30pm 20.3 19.3 13.3 64 4.0 E 11 19 6 10 1022.4 1022.4 0.0
30/05:00pm 20.8 19.7 13.0 61 4.4 ESE 11 19 6 10 1022.2 1022.2 0.0
30/04:30pm 22.1 20.6 13.2 57 5.1 ESE 13 20 7 11 1022.1 1022.1 0.0
30/04:00pm 22.1 21.0 13.2 57 5.1 E 11 17 6 9 1022.2 1022.2 0.0
30/03:30pm 21.9 20.5 13.3 58 4.9 E 13 20 7 11 1022.3 1022.3 0.0
30/03:00pm 21.9 20.5 13.3 58 4.9 ESE 13 24 7 13 1022.3 1022.3 0.0
30/02:30pm 21.6 20.1 13.2 59 4.8 E 13 22 7 12 1022.6 1022.6 0.0
30/02:00pm 21.4 19.5 13.1 59 4.7 SE 15 30 8 16 1022.9 1022.9 0.0
30/01:30pm 22.6 20.2 12.8 54 5.6 ESE 17 28 9 15 1022.9 1022.9 0.0
30/01:00pm 22.1 20.8 13.7 59 4.9 ESE 13 24 7 13 1023.2 1023.2 0.0
30/12:30pm 19.9 19.9 15.1 74 2.8 SE 9 17 5 9 1023.8 1023.8 0.0
30/12:00pm 19.1 17.0 14.8 76 2.5 ESE 19 32 10 17 1024.5 1024.5 0.0
30/11:30am 22.5 20.3 13.3 56 5.3 SE 17 28 9 15 1024.6 1024.6 0.0
30/11:00am 22.6 21.0 13.9 58 5.1 E 15 24 8 13 1025.1 1025.1 0.0
30/10:30am 21.3 19.2 13.5 61 4.5 ESE 17 28 9 15 1025.1 1025.1 0.0
30/10:00am 21.0 18.4 13.2 61 4.4 E 19 33 10 18 1025.3 1025.3 0.0
30/09:30am 20.4 18.5 12.9 62 4.3 SSE 15 24 8 13 1025.5 1025.5 0.0
30/09:00am 19.2 17.4 13.2 68 3.4 SSE 15 22 8 12 1025.4 1025.4 0.0
30/08:30am 17.3 15.5 12.2 72 2.8 SSE 13 20 7 11 1025.3 1025.3 0.0
30/08:00am 16.6 14.8 12.2 75 2.4 S 13 17 7 9 1025.2 1025.2 0.0
30/07:30am 15.4 14.9 12.7 84 1.5 SSE 7 11 4 6 1025.1 1025.1 0.0
30/07:00am 14.1 13.6 12.0 87 1.1 SSW 6 7 3 4 1024.9 1024.9 0.0
30/06:30am 14.3 13.3 12.2 87 1.1 S 9 13 5 7 1024.7 1024.7 0.0
30/06:00am 14.6 13.2 12.3 86 1.2 S 11 19 6 10 1024.4 1024.4 0.0
30/05:30am 14.9 13.2 12.4 85 1.4 SSE 13 19 7 10 1024.2 1024.2 0.0
30/05:00am 15.0 13.3 12.5 85 1.4 SSE 13 19 7 10 1023.9 1023.9 0.0
30/04:30am 15.1 13.1 12.6 85 1.4 S 15 24 8 13 1024.1 1024.1 0.0
30/04:00am 15.2 13.7 13.1 87 1.2 SSE 13 20 7 11 1024.3 1024.3 0.0
30/03:30am 14.8 13.3 13.0 89 1.0 SSE 13 22 7 12 1024.4 1024.4 0.0
30/03:00am 14.5 13.7 12.9 90 0.9 SSE 9 17 5 9 1024.5 1024.5 0.0
30/02:30am 14.6 13.4 12.8 89 1.0 S 11 15 6 8 1024.7 1024.7 0.0
30/02:00am 14.8 14.3 12.8 88 1.1 SSE 7 13 4 7 1025.0 1025.0 0.0
30/01:30am 15.3 14.5 13.0 86 1.3 SSE 9 15 5 8 1025.3 1025.3 0.0
30/01:00am 15.7 14.8 12.5 81 1.7 SSE 9 15 5 8 1025.6 1025.6 0.0
30/12:30am 16.8 15.2 12.7 77 2.3 S 13 17 7 9 1026.0 1026.0 0.0
30/12:00am 17.7 16.8 13.8 78 2.2 SSE 11 19 6 10 1026.0 1026.0 0.0
 
Date/Time
EST
Temp
°C
App
Temp
°C
Dew
Point
Rel
Hum
%
Delta-T
°C
Wind Press
QNH
hPa
Press
MSL
hPa
Rain
since 9 am
mm
Dir
 
Spd
km/h
Gust
km/h
Spd
kts
Gust
kts
29/11:30pm 16.5 16.4 14.0 85 1.4 SSE 7 13 4 7 1026.1 1026.1 0.0
29/11:00pm 13.2 13.4 11.8 91 0.7 SE 2 7 1 4 1026.2 1026.2 0.0
29/10:30pm 13.1 12.8 11.5 90 0.8 SE 4 7 2 4 1026.2 1026.2 0.0
29/10:00pm 13.8 13.5 11.5 86 1.2 SSE 4 7 2 4 1026.2 1026.2 0.0
29/09:30pm 14.6 14.4 11.9 84 1.5 SE 4 9 2 5 1026.4 1026.4 0.0
29/09:00pm 16.7 16.3 12.5 76 2.3 SSE 6 7 3 4 1026.4 1026.4 0.0
29/08:30pm 17.6 17.2 13.1 75 2.5 SE 7 13 4 7 1026.6 1026.6 0.0
29/08:00pm 18.0 17.3 13.1 73 2.7 SE 9 17 5 9 1026.5 1026.5 0.0
29/07:30pm 17.8 17.3 12.7 72 2.8 SE 7 11 4 6 1026.3 1026.3 0.0
29/07:00pm 18.0 17.5 12.7 71 2.9 SE 7 11 4 6 1026.1 1026.1 0.0
29/06:30pm 18.4 17.8 12.2 67 3.4 SE 7 11 4 6 1025.7 1025.7 0.0
29/06:00pm 19.2 18.5 12.0 63 4.0 ESE 7 13 4 7 1025.5 1025.5 0.0
29/05:30pm 20.1 18.6 11.8 59 4.6 SE 11 15 6 8 1025.2 1025.2 0.0
29/05:00pm 20.8 18.5 11.7 56 5.0 ESE 15 28 8 15 1024.8 1024.8 0.0
29/04:30pm 21.6 18.3 11.0 51 5.8 ESE 19 28 10 15 1024.5 1024.5 0.0
29/04:00pm 21.6 18.2 10.4 49 6.1 ESE 19 30 10 16 1024.4 1024.4 0.0
29/03:30pm 22.3 18.5 9.1 43 7.1 SE 19 26 10 14 1024.3 1024.3 0.0
29/03:00pm 21.9 18.2 8.1 41 7.2 ESE 17 30 9 16 1024.4 1024.4 0.0
29/02:30pm 22.9 19.4 8.6 40 7.6 ESE 17 32 9 17 1024.6 1024.6 0.0
29/02:00pm 23.3 19.9 9.0 40 7.6 E 17 28 9 15 1024.8 1024.8 0.0
29/01:30pm 21.9 18.6 9.4 45 6.7 SE 17 24 9 13 1025.3 1025.3 0.0
29/01:00pm 22.8 19.1 9.6 43 7.1 ESE 19 30 10 16 1025.6 1025.6 0.0
29/12:30pm 23.1 19.6 10.2 44 7.1 ESE 19 28 10 15 1026.0 1026.0 0.0
29/12:00pm 23.0 20.0 10.8 46 6.7 ESE 17 30 9 16 1026.4 1026.4 0.0
29/11:30am 22.1 18.6 10.3 47 6.4 ESE 19 28 10 15 1026.8 1026.8 0.0
29/11:00am 22.0 19.2 9.9 46 6.5 ESE 15 24 8 13 1027.3 1027.3 0.0
29/10:30am 21.6 17.9 8.1 42 7.1 SSE 17 26 9 14 1027.8 1027.8 0.0
29/10:00am 21.2 16.9 7.1 40 7.2 SSE 19 32 10 17 1028.0 1028.0 0.0
29/09:30am 20.8 16.1 6.0 38 7.4 SSE 20 28 11 15 1028.3 1028.3 0.0
29/09:00am 20.0 16.2 7.7 45 6.3 SSE 17 26 9 14 1028.3 1028.3 0.0
29/08:30am 18.6 15.9 10.4 59 4.4 S 15 22 8 12 1028.0 1028.0 0.0
29/08:00am 16.8 15.4 10.9 68 3.1 S 9 13 5 7 1027.9 1027.9 0.0
29/07:30am 15.4 14.5 11.4 77 2.1 S 7 11 4 6 1027.6 1027.6 0.0
29/07:00am 13.6 13.9 10.8 83 1.5 CALM 0 6 0 3 1027.5 1027.5 0.0
29/06:30am 14.1 13.1 11.1 82 1.6 S 7 13 4 7 1027.2 1027.2 0.0
29/06:00am 14.2 12.9 11.4 83 1.5 S 9 15 5 8 1026.9 1026.9 0.0
29/05:30am 14.5 13.3 11.6 83 1.6 S 9 17 5 9 1026.5 1026.5 0.0
29/05:00am 14.8 12.9 11.8 82 1.6 S 13 17 7 9 1026.3 1026.3 0.0
29/04:30am 15.0 12.0 12.1 83 1.6 S 19 24 10 13 1026.3 1026.3 0.0
29/04:00am 14.9 12.7 12.2 84 1.5 S 15 22 8 12 1026.2 1026.2 0.0
29/03:30am 14.9 12.9 12.6 86 1.3 SSW 15 22 8 12 1026.2 1026.2 0.0
29/03:00am 15.0 13.4 12.9 87 1.2 S 13 17 7 9 1026.3 1026.3 0.0
29/02:30am 15.0 13.8 12.9 87 1.2 SSW 11 15 6 8 1026.2 1026.2 0.0
29/02:00am 15.6 14.4 12.7 83 1.6 SSW 11 15 6 8 1026.3 1026.3 0.0
29/01:30am 16.4 15.7 13.1 81 1.8 SSE 9 15 5 8 1026.4 1026.4 0.0
29/01:00am 15.6 14.9 13.1 85 1.4 S 9 13 5 7 1026.6 1026.6 0.0
29/12:30am 15.2 14.8 12.9 86 1.3 SSW 7 9 4 5 1026.8 1026.8 0.0
29/12:00am 14.9 14.0 12.6 86 1.3 S 9 13 5 7 1026.7 1026.7 0.0
 
Date/Time
EST
Temp
°C
App
Temp
°C
Dew
Point
Rel
Hum
%
Delta-T
°C
Wind Press
QNH
hPa
Press
MSL
hPa
Rain
since 9 am
mm
Dir
 
Spd
km/h
Gust
km/h
Spd
kts
Gust
kts
28/11:30pm 15.3 14.3 12.4 83 1.6 SSW 9 13 5 7 1026.9 1026.9 0.0
28/11:00pm 16.2 15.7 12.6 79 2.0 S 7 11 4 6 1027.0 1027.0 0.0
28/10:30pm 17.7 16.9 12.8 73 2.7 SSE 9 13 5 7 1027.1 1027.1 0.0
28/10:00pm 18.3 17.8 12.5 69 3.2 SE 7 13 4 7 1027.0 1027.0 0.0
28/09:30pm 18.1 17.8 13.2 73 2.8 SE 7 11 4 6 1027.1 1027.1 0.0
28/09:00pm 16.5 16.2 12.8 79 2.0 SE 6 7 3 4 1027.2 1027.2 0.0
28/08:30pm 16.7 16.1 11.6 72 2.8 SE 6 9 3 5 1027.1 1027.1 0.0
28/08:00pm 17.0 16.1 10.8 67 3.3 ESE 6 7 3 4 1027.0 1027.0 0.0
28/07:30pm 18.5 17.1 10.8 61 4.2 SE 9 13 5 7 1026.7 1026.7 0.0
28/07:00pm 18.5 16.9 10.1 58 4.5 SE 9 17 5 9 1026.6 1026.6 0.0
28/06:30pm 19.0 17.7 10.0 56 4.8 SE 7 11 4 6 1026.2 1026.2 0.0
28/06:00pm 19.8 18.2 10.2 54 5.1 SE 9 15 5 8 1025.8 1025.8 0.0
28/05:30pm 20.4 19.2 9.6 50 5.8 SE 6 13 3 7 1025.4 1025.4 0.0

Other Formats:

Comma delimited format used in spreadsheet applications
http://www.bom.gov.au/fwo/IDQ60801/IDQ60801.95370.axf

JavaScript Object Notation format (JSON) in row-major order
http://www.bom.gov.au/fwo/IDQ60801/IDQ60801.95370.json